Airfield :
LOGIN :

Register | Disclaimer

   EN    FR    IT 

 










Legend :    VFR   Marginal VFR   IFR   Intensive IFR   Very Intensive IFR
Visi :
Ceiling :
>= 8 km
>= 3000ft
5 to 8 km
1000 to 3000 ft
1500m to 5 km
500 to 1000 ft
800 to 1500m
200 to 500 ft
< 800m
< 200 ft
Symbols :   Thunderstorms  Fog  Heavy snow  Heavy precipitations  Wind > 20 kt
SIGMETs :     Misc.  Thunderstorms  Icing  Turbulence  Mountain Waves  Volcanic Ashes






- Airport Elevation : 215 ft
- IATA code : ABZ


EGPD - Aberdeen / Dyce

CURRENT METAR :
  • 260150Z AUTO 17008KT 9999 BKN019 OVC027 06/03 Q1001 NOSIG

EXPIRED METARs :
  • 260120Z AUTO 17012KT 9999 BKN020 OVC025 06/04 Q1001
  • 260050Z AUTO 18012KT 9999 BKN018 OVC023 06/04 Q1002 NOSIG
  • 260020Z AUTO 18015KT 9999 SCT021 BKN026 06/04 Q1002
  • 252350Z AUTO 18007G17KT 140V210 9999 BKN026 BKN030 06/03 Q1002
  • 252320Z AUTO 16011KT 9999 SCT023 BKN029 BKN033 06/03 Q1003 NOSIG

TAF TAF EGPD
Valid from the 26 at 00:00 until the 27 at 00:00 UTC


252256Z 2600/2624 20012KT 9999 FEW015
PROB30
TEMPO 2600/2602 BKN012
TEMPO 2602/2613 6000 -RA BKN012
PROB40
TEMPO 2602/2610 20016G28KT
PROB40
TEMPO 2609/2613 4000 RA BKN008
BECMG 2610/2613 26007KT
BECMG 2620/2623 20010KT



MET'MAP, your aeronautical weather chart ! - Copyright ORBIFLY December 2007 - Disclaimer

ORBIFLY MET'MAP TEAM :

Programming & Development : Alexandra Zaïnal
Concept & original design : Baudouin d'Aumeries
Assistance for programming : Marc-Olivier Méhu
Technical & hardware support : Manuel Goepfert

Contact : metmap@orbifly.com




SOURCES & CREDITS :

   NOAA